sensor_id;sensor_type;location;lat;lon;timestamp;pressure;altitude;pressure_sealevel;temperature;humidity
15914;BME280;8055;51.930;8.840;2023-12-29T00:00:42;75700.53;;;-145.72;87.96
15914;BME280;8055;51.930;8.840;2023-12-29T00:03:08;75694.34;;;-145.72;88.00
15914;BME280;8055;51.930;8.840;2023-12-29T00:05:33;75688.13;;;-145.72;86.92
15914;BME280;8055;51.930;8.840;2023-12-29T00:07:59;75673.63;;;-145.72;87.59
15914;BME280;8055;51.930;8.840;2023-12-29T00:10:24;75679.84;;;-145.72;87.96
15914;BME280;8055;51.930;8.840;2023-12-29T00:12:49;75690.19;;;-145.72;88.63
15914;BME280;8055;51.930;8.840;2023-12-29T00:15:18;75684.00;;;-145.72;88.51
15914;BME280;8055;51.930;8.840;2023-12-29T00:17:44;75696.41;;;-145.72;88.63
15914;BME280;8055;51.930;8.840;2023-12-29T00:20:09;75684.00;;;-145.72;88.99
15914;BME280;8055;51.930;8.840;2023-12-29T00:22:35;75671.56;;;-145.72;87.17
15914;BME280;8055;51.930;8.840;2023-12-29T00:25:00;75661.22;;;-145.72;87.27
15914;BME280;8055;51.930;8.840;2023-12-29T00:27:26;75667.44;;;-145.72;86.52
15914;BME280;8055;51.930;8.840;2023-12-29T00:29:51;75644.66;;;-145.72;87.05
15914;BME280;8055;51.930;8.840;2023-12-29T00:32:16;75655.03;;;-145.72;88.35
15914;BME280;8055;51.930;8.840;2023-12-29T00:34:42;75655.03;;;-145.72;89.21
15914;BME280;8055;51.930;8.840;2023-12-29T00:37:07;75665.38;;;-145.72;91.62
15914;BME280;8055;51.930;8.840;2023-12-29T00:39:33;75684.00;;;-145.72;93.72
15914;BME280;8055;51.930;8.840;2023-12-29T00:42:04;75667.44;;;-145.72;94.68
15914;BME280;8055;51.930;8.840;2023-12-29T00:44:30;75669.50;;;-145.72;95.39
15914;BME280;8055;51.930;8.840;2023-12-29T00:46:55;75667.44;;;-145.72;95.41
15914;BME280;8055;51.930;8.840;2023-12-29T00:49:20;75673.63;;;-145.72;95.45
15914;BME280;8055;51.930;8.840;2023-12-29T00:51:47;75646.75;;;-145.72;93.81
15914;BME280;8055;51.930;8.840;2023-12-29T00:54:13;75663.28;;;-145.72;94.45
15914;BME280;8055;51.930;8.840;2023-12-29T00:56:38;75659.16;;;-145.72;94.43
15914;BME280;8055;51.930;8.840;2023-12-29T00:59:03;75650.88;;;-145.72;93.70
15914;BME280;8055;51.930;8.840;2023-12-29T01:01:33;75636.41;;;-145.72;92.71
15914;BME280;8055;51.930;8.840;2023-12-29T01:03:59;75634.31;;;-145.72;94.50
15914;BME280;8055;51.930;8.840;2023-12-29T01:06:24;75646.75;;;-145.72;95.31
15914;BME280;8055;51.930;8.840;2023-12-29T01:08:49;75632.25;;;-145.72;94.77
15914;BME280;8055;51.930;8.840;2023-12-29T01:11:15;75646.75;;;-145.72;97.47
15914;BME280;8055;51.930;8.840;2023-12-29T01:13:40;75636.41;;;-145.72;96.41
15914;BME280;8055;51.930;8.840;2023-12-29T01:16:06;75634.31;;;-145.72;96.58
15914;BME280;8055;51.930;8.840;2023-12-29T01:18:31;75640.53;;;-145.72;95.52
15914;BME280;8055;51.930;8.840;2023-12-29T01:20:57;75632.25;;;-145.72;95.93
15914;BME280;8055;51.930;8.840;2023-12-29T01:23:22;75659.16;;;-145.72;98.44
15914;BME280;8055;51.930;8.840;2023-12-29T01:25:47;75634.31;;;-145.72;97.79
15914;BME280;8055;51.930;8.840;2023-12-29T01:28:13;75638.47;;;-145.72;99.50
15914;BME280;8055;51.930;8.840;2023-12-29T01:30:38;75634.31;;;-145.72;100.00
15914;BME280;8055;51.930;8.840;2023-12-29T01:33:03;75632.25;;;-145.72;97.99
15914;BME280;8055;51.930;8.840;2023-12-29T01:35:29;75617.78;;;-145.72;98.29
15914;BME280;8055;51.930;8.840;2023-12-29T01:37:54;75626.06;;;-145.72;100.00
15914;BME280;8055;51.930;8.840;2023-12-29T01:40:22;75642.59;;;-145.72;100.00
15914;BME280;8055;51.930;8.840;2023-12-29T01:42:48;75615.69;;;-145.72;100.00
15914;BME280;8055;51.930;8.840;2023-12-29T01:45:23;75615.69;;;-145.72;99.74
15914;BME280;8055;51.930;8.840;2023-12-29T01:47:49;75609.50;;;-145.72;97.32
15914;BME280;8055;51.930;8.840;2023-12-29T01:50:17;75599.16;;;-145.72;98.46
15914;BME280;8055;51.930;8.840;2023-12-29T01:52:43;75599.16;;;-145.72;99.30
15914;BME280;8055;51.930;8.840;2023-12-29T01:55:12;75607.44;;;-145.72;98.34
15914;BME280;8055;51.930;8.840;2023-12-29T01:57:41;75599.16;;;-145.72;98.95
15914;BME280;8055;51.930;8.840;2023-12-29T02:00:08;75601.22;;;-145.72;97.93
15914;BME280;8055;51.930;8.840;2023-12-29T02:02:33;75592.94;;;-145.72;98.92
15914;BME280;8055;51.930;8.840;2023-12-29T02:04:59;75592.94;;;-145.72;99.17
15914;BME280;8055;51.930;8.840;2023-12-29T02:07:27;75574.31;;;-145.72;98.94
15914;BME280;8055;51.930;8.840;2023-12-29T02:09:56;75576.38;;;-145.72;98.01
15914;BME280;8055;51.930;8.840;2023-12-29T02:12:22;75566.03;;;-145.72;96.00
15914;BME280;8055;51.930;8.840;2023-12-29T02:14:48;75563.97;;;-145.72;95.28
15914;BME280;8055;51.930;8.840;2023-12-29T02:17:22;75549.50;;;-145.72;95.10
15914;BME280;8055;51.930;8.840;2023-12-29T02:19:51;75549.50;;;-145.72;95.02
15914;BME280;8055;51.930;8.840;2023-12-29T02:22:17;75545.34;;;-145.72;95.60
15914;BME280;8055;51.930;8.840;2023-12-29T02:24:49;75520.53;;;-145.72;94.19
15914;BME280;8055;51.930;8.840;2023-12-29T02:29:48;75524.66;;;-145.72;93.15
15914;BME280;8055;51.930;8.840;2023-12-29T02:32:18;75535.00;;;-145.72;94.54
15914;BME280;8055;51.930;8.840;2023-12-29T02:34:44;75532.94;;;-145.72;92.87
15914;BME280;8055;51.930;8.840;2023-12-29T02:37:12;75535.00;;;-145.72;94.34
15914;BME280;8055;51.930;8.840;2023-12-29T02:39:37;75537.06;;;-145.72;93.76
15914;BME280;8055;51.930;8.840;2023-12-29T02:42:03;75532.94;;;-145.72;94.29
15914;BME280;8055;51.930;8.840;2023-12-29T02:44:28;75551.56;;;-145.72;96.01
15914;BME280;8055;51.930;8.840;2023-12-29T02:46:53;75557.75;;;-145.72;98.05
15914;BME280;8055;51.930;8.840;2023-12-29T02:49:19;75574.31;;;-145.72;99.07
15914;BME280;8055;51.930;8.840;2023-12-29T02:51:44;75568.13;;;-145.72;100.00
15914;BME280;8055;51.930;8.840;2023-12-29T02:54:11;75576.38;;;-145.72;100.00
15914;BME280;8055;51.930;8.840;2023-12-29T02:56:36;75590.88;;;-145.72;100.00
15914;BME280;8055;51.930;8.840;2023-12-29T02:59:02;75584.66;;;-145.72;100.00
15914;BME280;8055;51.930;8.840;2023-12-29T03:01:27;75613.63;;;-145.72;100.00
15914;BME280;8055;51.930;8.840;2023-12-29T03:03:54;75626.06;;;-145.72;100.00
15914;BME280;8055;51.930;8.840;2023-12-29T03:06:20;75646.75;;;-145.72;100.00
15914;BME280;8055;51.930;8.840;2023-12-29T03:08:45;75659.16;;;-145.72;100.00
15914;BME280;8055;51.930;8.840;2023-12-29T03:11:10;75657.09;;;-145.72;100.00
15914;BME280;8055;51.930;8.840;2023-12-29T03:13:36;75663.28;;;-145.72;100.00
15914;BME280;8055;51.930;8.840;2023-12-29T03:16:01;75677.78;;;-145.72;100.00
15914;BME280;8055;51.930;8.840;2023-12-29T03:18:26;75694.34;;;-145.72;100.00
15914;BME280;8055;51.930;8.840;2023-12-29T03:20:52;75704.69;;;-145.72;100.00
15914;BME280;8055;51.930;8.840;2023-12-29T03:23:17;75698.47;;;-145.72;100.00
15914;BME280;8055;51.930;8.840;2023-12-29T03:25:42;75681.91;;;-145.72;100.00
15914;BME280;8055;51.930;8.840;2023-12-29T03:28:08;75710.88;;;-145.72;100.00
15914;BME280;8055;51.930;8.840;2023-12-29T03:30:33;75719.16;;;-145.72;100.00
15914;BME280;8055;51.930;8.840;2023-12-29T03:32:58;75702.59;;;-145.72;100.00
15914;BME280;8055;51.930;8.840;2023-12-29T03:35:24;75706.75;;;-145.72;100.00
15914;BME280;8055;51.930;8.840;2023-12-29T03:37:49;75723.31;;;-145.72;100.00
15914;BME280;8055;51.930;8.840;2023-12-29T03:40:14;75688.13;;;-145.72;100.00
15914;BME280;8055;51.930;8.840;2023-12-29T03:42:40;75688.13;;;-145.72;100.00
15914;BME280;8055;51.930;8.840;2023-12-29T03:45:06;75700.53;;;-145.72;100.00
15914;BME280;8055;51.930;8.840;2023-12-29T03:47:31;75706.75;;;-145.72;100.00
15914;BME280;8055;51.930;8.840;2023-12-29T03:49:57;75727.44;;;-145.72;100.00
15914;BME280;8055;51.930;8.840;2023-12-29T03:52:23;75708.81;;;-145.72;100.00
15914;BME280;8055;51.930;8.840;2023-12-29T03:54:48;75698.47;;;-145.72;100.00
15914;BME280;8055;51.930;8.840;2023-12-29T03:57:13;75706.75;;;-145.72;100.00
15914;BME280;8055;51.930;8.840;2023-12-29T03:59:39;75686.06;;;-145.72;100.00
15914;BME280;8055;51.930;8.840;2023-12-29T04:02:04;75679.84;;;-145.72;100.00
15914;BME280;8055;51.930;8.840;2023-12-29T04:04:29;75671.56;;;-145.72;100.00
15914;BME280;8055;51.930;8.840;2023-12-29T04:06:55;75681.91;;;-145.72;100.00
15914;BME280;8055;51.930;8.840;2023-12-29T04:09:21;75688.13;;;-145.72;100.00
15914;BME280;8055;51.930;8.840;2023-12-29T04:11:46;75688.13;;;-145.72;100.00
15914;BME280;8055;51.930;8.840;2023-12-29T04:14:11;75696.41;;;-145.72;100.00
15914;BME280;8055;51.930;8.840;2023-12-29T04:16:38;75667.44;;;-145.72;100.00
15914;BME280;8055;51.930;8.840;2023-12-29T04:19:03;75681.91;;;-145.72;100.00
15914;BME280;8055;51.930;8.840;2023-12-29T04:21:29;75690.19;;;-145.72;100.00
15914;BME280;8055;51.930;8.840;2023-12-29T04:23:54;75700.53;;;-145.72;100.00
15914;BME280;8055;51.930;8.840;2023-12-29T04:26:19;75704.69;;;-145.72;100.00
15914;BME280;8055;51.930;8.840;2023-12-29T04:28:45;75698.47;;;-145.72;100.00
15914;BME280;8055;51.930;8.840;2023-12-29T04:31:10;75702.59;;;-145.72;100.00
15914;BME280;8055;51.930;8.840;2023-12-29T04:33:35;75706.75;;;-145.72;100.00
15914;BME280;8055;51.930;8.840;2023-12-29T04:36:01;75708.81;;;-145.72;100.00
15914;BME280;8055;51.930;8.840;2023-12-29T04:38:26;75686.06;;;-145.72;100.00
15914;BME280;8055;51.930;8.840;2023-12-29T04:40:51;75684.00;;;-145.72;100.00
15914;BME280;8055;51.930;8.840;2023-12-29T04:43:17;75684.00;;;-145.72;100.00
15914;BME280;8055;51.930;8.840;2023-12-29T04:45:42;75706.75;;;-145.72;100.00
15914;BME280;8055;51.930;8.840;2023-12-29T04:48:07;75698.47;;;-145.72;100.00
15914;BME280;8055;51.930;8.840;2023-12-29T04:50:33;75694.34;;;-145.72;100.00
15914;BME280;8055;51.930;8.840;2023-12-29T04:52:58;75700.53;;;-145.72;100.00
15914;BME280;8055;51.930;8.840;2023-12-29T04:55:23;75696.41;;;-145.72;100.00
15914;BME280;8055;51.930;8.840;2023-12-29T04:57:49;75698.47;;;-145.72;100.00
15914;BME280;8055;51.930;8.840;2023-12-29T05:00:14;75710.88;;;-145.72;100.00
15914;BME280;8055;51.930;8.840;2023-12-29T05:02:39;75717.09;;;-145.72;100.00
15914;BME280;8055;51.930;8.840;2023-12-29T05:05:05;75702.59;;;-145.72;100.00
15914;BME280;8055;51.930;8.840;2023-12-29T05:07:31;75710.88;;;-145.72;100.00
15914;BME280;8055;51.930;8.840;2023-12-29T05:09:56;75712.94;;;-145.72;100.00
15914;BME280;8055;51.930;8.840;2023-12-29T05:12:21;75704.69;;;-145.72;100.00
15914;BME280;8055;51.930;8.840;2023-12-29T05:14:47;75704.69;;;-145.72;100.00
15914;BME280;8055;51.930;8.840;2023-12-29T05:17:12;75712.94;;;-145.72;100.00
15914;BME280;8055;51.930;8.840;2023-12-29T05:19:37;75702.59;;;-145.72;100.00
15914;BME280;8055;51.930;8.840;2023-12-29T05:22:03;75708.81;;;-145.72;100.00
15914;BME280;8055;51.930;8.840;2023-12-29T05:24:28;75704.69;;;-145.72;100.00
15914;BME280;8055;51.930;8.840;2023-12-29T05:26:53;75698.47;;;-145.72;100.00
15914;BME280;8055;51.930;8.840;2023-12-29T05:29:19;75700.53;;;-145.72;100.00
15914;BME280;8055;51.930;8.840;2023-12-29T05:31:44;75704.69;;;-145.72;100.00
15914;BME280;8055;51.930;8.840;2023-12-29T05:34:09;75690.19;;;-145.72;100.00
15914;BME280;8055;51.930;8.840;2023-12-29T05:36:35;75692.25;;;-145.72;100.00
15914;BME280;8055;51.930;8.840;2023-12-29T05:39:01;75690.19;;;-145.72;100.00
15914;BME280;8055;51.930;8.840;2023-12-29T05:41:26;75686.06;;;-145.72;100.00
15914;BME280;8055;51.930;8.840;2023-12-29T05:43:52;75690.19;;;-145.72;100.00
15914;BME280;8055;51.930;8.840;2023-12-29T05:46:17;75694.34;;;-145.72;100.00
15914;BME280;8055;51.930;8.840;2023-12-29T05:48:42;75688.13;;;-145.72;100.00
15914;BME280;8055;51.930;8.840;2023-12-29T05:51:12;75686.06;;;-145.72;100.00
15914;BME280;8055;51.930;8.840;2023-12-29T05:53:41;75667.44;;;-145.72;100.00
15914;BME280;8055;51.930;8.840;2023-12-29T05:56:07;75661.22;;;-145.72;100.00
15914;BME280;8055;51.930;8.840;2023-12-29T05:58:32;75663.28;;;-145.72;100.00
15914;BME280;8055;51.930;8.840;2023-12-29T06:00:58;75669.50;;;-145.72;100.00
15914;BME280;8055;51.930;8.840;2023-12-29T06:03:27;75665.38;;;-145.72;100.00
15914;BME280;8055;51.930;8.840;2023-12-29T06:05:52;75657.09;;;-145.72;100.00
15914;BME280;8055;51.930;8.840;2023-12-29T06:08:18;75669.50;;;-145.72;100.00
15914;BME280;8055;51.930;8.840;2023-12-29T06:10:43;75671.56;;;-145.72;100.00
15914;BME280;8055;51.930;8.840;2023-12-29T06:13:08;75665.38;;;-145.72;100.00
15914;BME280;8055;51.930;8.840;2023-12-29T06:15:34;75667.44;;;-145.72;100.00
15914;BME280;8055;51.930;8.840;2023-12-29T06:17:59;75655.03;;;-145.72;100.00
15914;BME280;8055;51.930;8.840;2023-12-29T06:20:25;75669.50;;;-145.72;100.00
15914;BME280;8055;51.930;8.840;2023-12-29T06:22:50;75684.00;;;-145.72;100.00
15914;BME280;8055;51.930;8.840;2023-12-29T06:25:16;75675.72;;;-145.72;100.00
15914;BME280;8055;51.930;8.840;2023-12-29T06:27:42;75665.38;;;-145.72;100.00
15914;BME280;8055;51.930;8.840;2023-12-29T06:30:08;75657.09;;;-145.72;100.00
15914;BME280;8055;51.930;8.840;2023-12-29T06:32:34;75665.38;;;-145.72;100.00
15914;BME280;8055;51.930;8.840;2023-12-29T06:34:59;75665.38;;;-145.72;100.00
15914;BME280;8055;51.930;8.840;2023-12-29T06:37:25;75667.44;;;-145.72;100.00
15914;BME280;8055;51.930;8.840;2023-12-29T06:39:50;75650.88;;;-145.72;100.00
15914;BME280;8055;51.930;8.840;2023-12-29T06:42:16;75661.22;;;-145.72;100.00
15914;BME280;8055;51.930;8.840;2023-12-29T06:44:41;75644.66;;;-145.72;100.00
15914;BME280;8055;51.930;8.840;2023-12-29T06:47:06;75638.47;;;-145.72;100.00
15914;BME280;8055;51.930;8.840;2023-12-29T06:49:35;75646.75;;;-145.72;100.00
15914;BME280;8055;51.930;8.840;2023-12-29T06:52:00;75623.97;;;-145.72;100.00
15914;BME280;8055;51.930;8.840;2023-12-29T06:54:26;75632.25;;;-145.72;100.00
15914;BME280;8055;51.930;8.840;2023-12-29T06:56:51;75592.94;;;-145.72;100.00
15914;BME280;8055;51.930;8.840;2023-12-29T06:59:17;75619.84;;;-145.72;100.00
15914;BME280;8055;51.930;8.840;2023-12-29T07:01:44;75613.63;;;-145.72;100.00
15914;BME280;8055;51.930;8.840;2023-12-29T07:04:09;75615.69;;;-145.72;100.00
15914;BME280;8055;51.930;8.840;2023-12-29T07:06:36;75613.63;;;-145.72;100.00
15914;BME280;8055;51.930;8.840;2023-12-29T07:09:02;75626.06;;;-145.72;100.00
15914;BME280;8055;51.930;8.840;2023-12-29T07:11:28;75626.06;;;-145.72;100.00
15914;BME280;8055;51.930;8.840;2023-12-29T07:13:53;75630.19;;;-145.72;100.00
15914;BME280;8055;51.930;8.840;2023-12-29T07:16:19;75609.50;;;-145.72;100.00
15914;BME280;8055;51.930;8.840;2023-12-29T07:18:45;75603.28;;;-145.72;100.00
15914;BME280;8055;51.930;8.840;2023-12-29T07:21:12;75626.06;;;-145.72;100.00
15914;BME280;8055;51.930;8.840;2023-12-29T07:23:38;75609.50;;;-145.72;100.00
15914;BME280;8055;51.930;8.840;2023-12-29T07:26:03;75613.63;;;-145.72;100.00
15914;BME280;8055;51.930;8.840;2023-12-29T07:28:31;75592.94;;;-145.72;100.00
15914;BME280;8055;51.930;8.840;2023-12-29T07:30:56;75592.94;;;-145.72;100.00
15914;BME280;8055;51.930;8.840;2023-12-29T07:33:22;75590.88;;;-145.72;100.00
15914;BME280;8055;51.930;8.840;2023-12-29T07:35:49;75619.84;;;-145.72;100.00
15914;BME280;8055;51.930;8.840;2023-12-29T07:38:14;75613.63;;;-145.72;100.00
15914;BME280;8055;51.930;8.840;2023-12-29T07:40:40;75628.13;;;-145.72;100.00
15914;BME280;8055;51.930;8.840;2023-12-29T07:43:05;75609.50;;;-145.72;100.00
15914;BME280;8055;51.930;8.840;2023-12-29T07:45:31;75615.69;;;-145.72;100.00
15914;BME280;8055;51.930;8.840;2023-12-29T07:47:56;75617.78;;;-145.72;100.00
15914;BME280;8055;51.930;8.840;2023-12-29T07:50:22;75611.56;;;-145.72;100.00
15914;BME280;8055;51.930;8.840;2023-12-29T07:52:48;75603.28;;;-145.72;100.00
15914;BME280;8055;51.930;8.840;2023-12-29T07:55:13;75611.56;;;-145.72;100.00
15914;BME280;8055;51.930;8.840;2023-12-29T07:57:41;75597.09;;;-145.72;100.00
15914;BME280;8055;51.930;8.840;2023-12-29T08:00:07;75617.78;;;-145.72;100.00
15914;BME280;8055;51.930;8.840;2023-12-29T08:02:33;75607.44;;;-145.72;100.00
15914;BME280;8055;51.930;8.840;2023-12-29T08:04:58;75607.44;;;-145.72;100.00
15914;BME280;8055;51.930;8.840;2023-12-29T08:07:23;75603.28;;;-145.72;100.00
15914;BME280;8055;51.930;8.840;2023-12-29T08:09:49;75590.88;;;-145.72;100.00
15914;BME280;8055;51.930;8.840;2023-12-29T08:12:14;75597.09;;;-145.72;100.00
15914;BME280;8055;51.930;8.840;2023-12-29T08:14:39;75584.66;;;-145.72;100.00
15914;BME280;8055;51.930;8.840;2023-12-29T08:17:05;75597.09;;;-145.72;100.00
15914;BME280;8055;51.930;8.840;2023-12-29T08:19:32;75595.00;;;-145.72;100.00
15914;BME280;8055;51.930;8.840;2023-12-29T08:21:57;75592.94;;;-145.72;100.00
15914;BME280;8055;51.930;8.840;2023-12-29T08:24:23;75592.94;;;-145.72;100.00
15914;BME280;8055;51.930;8.840;2023-12-29T08:26:48;75592.94;;;-145.72;100.00
15914;BME280;8055;51.930;8.840;2023-12-29T08:29:14;75595.00;;;-145.72;100.00
15914;BME280;8055;51.930;8.840;2023-12-29T08:31:39;75586.72;;;-145.72;100.00
15914;BME280;8055;51.930;8.840;2023-12-29T08:34:05;75592.94;;;-145.72;100.00
15914;BME280;8055;51.930;8.840;2023-12-29T08:36:30;75586.72;;;-145.72;100.00
15914;BME280;8055;51.930;8.840;2023-12-29T08:38:56;75599.16;;;-145.72;100.00
15914;BME280;8055;51.930;8.840;2023-12-29T08:41:22;75595.00;;;-145.72;100.00
15914;BME280;8055;51.930;8.840;2023-12-29T08:43:47;75605.34;;;-145.72;100.00
15914;BME280;8055;51.930;8.840;2023-12-29T08:46:12;75611.56;;;-145.72;100.00
15914;BME280;8055;51.930;8.840;2023-12-29T08:48:38;75617.78;;;-145.72;100.00
15914;BME280;8055;51.930;8.840;2023-12-29T08:51:03;75617.78;;;-145.72;100.00
15914;BME280;8055;51.930;8.840;2023-12-29T08:53:29;75628.13;;;-145.72;100.00
15914;BME280;8055;51.930;8.840;2023-12-29T08:55:58;75630.19;;;-145.72;100.00
15914;BME280;8055;51.930;8.840;2023-12-29T08:58:24;75632.25;;;-145.72;100.00
15914;BME280;8055;51.930;8.840;2023-12-29T09:00:49;75648.81;;;-145.72;100.00
15914;BME280;8055;51.930;8.840;2023-12-29T09:03:14;75675.72;;;-145.72;100.00
15914;BME280;8055;51.930;8.840;2023-12-29T09:05:40;75669.50;;;-145.72;100.00
15914;BME280;8055;51.930;8.840;2023-12-29T09:08:05;75673.63;;;-145.72;100.00
15914;BME280;8055;51.930;8.840;2023-12-29T09:10:31;75675.72;;;-145.72;100.00
15914;BME280;8055;51.930;8.840;2023-12-29T09:12:56;75673.63;;;-145.72;100.00
15914;BME280;8055;51.930;8.840;2023-12-29T09:15:21;75679.84;;;-145.72;100.00
15914;BME280;8055;51.930;8.840;2023-12-29T09:17:48;75675.72;;;-145.72;100.00
15914;BME280;8055;51.930;8.840;2023-12-29T09:20:13;75681.91;;;-145.72;100.00
15914;BME280;8055;51.930;8.840;2023-12-29T09:22:40;75690.19;;;-145.72;100.00
15914;BME280;8055;51.930;8.840;2023-12-29T09:25:05;75688.13;;;-145.72;100.00
15914;BME280;8055;51.930;8.840;2023-12-29T09:27:31;75692.25;;;-145.72;100.00
15914;BME280;8055;51.930;8.840;2023-12-29T09:29:56;75684.00;;;-145.72;100.00
15914;BME280;8055;51.930;8.840;2023-12-29T09:32:21;75677.78;;;-145.72;100.00
15914;BME280;8055;51.930;8.840;2023-12-29T09:34:47;75675.72;;;-145.72;100.00
15914;BME280;8055;51.930;8.840;2023-12-29T09:37:12;75681.91;;;-145.72;100.00
15914;BME280;8055;51.930;8.840;2023-12-29T09:39:38;75686.06;;;-145.72;100.00
15914;BME280;8055;51.930;8.840;2023-12-29T09:42:03;75675.72;;;-145.72;100.00
15914;BME280;8055;51.930;8.840;2023-12-29T09:44:31;75684.00;;;-145.72;100.00
15914;BME280;8055;51.930;8.840;2023-12-29T09:47:00;75677.78;;;-145.72;100.00
15914;BME280;8055;51.930;8.840;2023-12-29T09:49:27;75684.00;;;-145.72;100.00
15914;BME280;8055;51.930;8.840;2023-12-29T09:51:57;75681.91;;;-145.72;100.00
15914;BME280;8055;51.930;8.840;2023-12-29T09:54:22;75675.72;;;-145.72;100.00
15914;BME280;8055;51.930;8.840;2023-12-29T09:56:49;75684.00;;;-145.72;100.00
15914;BME280;8055;51.930;8.840;2023-12-29T09:59:15;75673.63;;;-145.72;100.00
15914;BME280;8055;51.930;8.840;2023-12-29T10:01:43;75673.63;;;-145.72;100.00
15914;BME280;8055;51.930;8.840;2023-12-29T10:04:10;75671.56;;;-145.72;100.00
15914;BME280;8055;51.930;8.840;2023-12-29T10:06:36;75665.38;;;-145.72;100.00
15914;BME280;8055;51.930;8.840;2023-12-29T10:09:04;75659.16;;;-145.72;100.00
15914;BME280;8055;51.930;8.840;2023-12-29T10:11:35;75640.53;;;-145.72;100.00
15914;BME280;8055;51.930;8.840;2023-12-29T10:14:12;75646.75;;;-145.72;100.00
15914;BME280;8055;51.930;8.840;2023-12-29T10:16:45;75628.13;;;-145.72;100.00
15914;BME280;8055;51.930;8.840;2023-12-29T10:19:23;75652.94;;;-145.72;100.00
15914;BME280;8055;51.930;8.840;2023-12-29T10:22:06;75634.31;;;-145.72;100.00
15914;BME280;8055;51.930;8.840;2023-12-29T10:24:34;75634.31;;;-145.72;100.00
15914;BME280;8055;51.930;8.840;2023-12-29T10:27:00;75638.47;;;-145.72;100.00
15914;BME280;8055;51.930;8.840;2023-12-29T10:29:27;75634.31;;;-145.72;100.00
15914;BME280;8055;51.930;8.840;2023-12-29T10:31:52;75630.19;;;-145.72;100.00
15914;BME280;8055;51.930;8.840;2023-12-29T10:34:20;75621.91;;;-145.72;100.00
15914;BME280;8055;51.930;8.840;2023-12-29T10:36:49;75628.13;;;-145.72;100.00
15914;BME280;8055;51.930;8.840;2023-12-29T10:39:15;75615.69;;;-145.72;100.00
15914;BME280;8055;51.930;8.840;2023-12-29T10:41:41;75634.31;;;-145.72;100.00
15914;BME280;8055;51.930;8.840;2023-12-29T10:44:07;75626.06;;;-145.72;100.00
15914;BME280;8055;51.930;8.840;2023-12-29T10:46:32;75607.44;;;-145.72;100.00
15914;BME280;8055;51.930;8.840;2023-12-29T10:49:08;75613.63;;;-145.72;100.00
15914;BME280;8055;51.930;8.840;2023-12-29T10:51:37;75621.91;;;-145.72;100.00
15914;BME280;8055;51.930;8.840;2023-12-29T10:54:03;75607.44;;;-145.72;100.00
15914;BME280;8055;51.930;8.840;2023-12-29T10:56:29;75611.56;;;-145.72;100.00
15914;BME280;8055;51.930;8.840;2023-12-29T10:59:03;75599.16;;;-145.72;100.00
15914;BME280;8055;51.930;8.840;2023-12-29T11:01:34;75582.59;;;-145.72;100.00
15914;BME280;8055;51.930;8.840;2023-12-29T11:06:27;75570.19;;;-145.72;100.00
15914;BME280;8055;51.930;8.840;2023-12-29T11:08:53;75582.59;;;-145.72;100.00
15914;BME280;8055;51.930;8.840;2023-12-29T11:11:19;75580.53;;;-145.72;100.00
15914;BME280;8055;51.930;8.840;2023-12-29T11:13:48;75580.53;;;-145.72;100.00
15914;BME280;8055;51.930;8.840;2023-12-29T11:16:15;75580.53;;;-145.72;100.00
15914;BME280;8055;51.930;8.840;2023-12-29T11:18:43;75576.38;;;-145.72;100.00
15914;BME280;8055;51.930;8.840;2023-12-29T11:21:10;75580.53;;;-145.72;100.00
15914;BME280;8055;51.930;8.840;2023-12-29T11:23:36;75574.31;;;-145.72;100.00
15914;BME280;8055;51.930;8.840;2023-12-29T11:26:03;75551.56;;;-145.72;100.00
15914;BME280;8055;51.930;8.840;2023-12-29T11:28:28;75543.28;;;-145.72;100.00
15914;BME280;8055;51.930;8.840;2023-12-29T11:30:54;75553.63;;;-145.72;100.00
15914;BME280;8055;51.930;8.840;2023-12-29T11:33:27;75549.50;;;-145.72;100.00
15914;BME280;8055;51.930;8.840;2023-12-29T11:38:33;75535.00;;;-145.72;100.00
15914;BME280;8055;51.930;8.840;2023-12-29T11:41:18;75557.75;;;-145.72;100.00
15914;BME280;8055;51.930;8.840;2023-12-29T11:43:56;75547.41;;;-145.72;100.00
15914;BME280;8055;51.930;8.840;2023-12-29T11:49:00;75561.91;;;-145.72;100.00
15914;BME280;8055;51.930;8.840;2023-12-29T11:51:39;75543.28;;;-145.72;100.00
15914;BME280;8055;51.930;8.840;2023-12-29T11:54:06;75543.28;;;-145.72;100.00
15914;BME280;8055;51.930;8.840;2023-12-29T11:56:40;75541.22;;;-145.72;100.00
15914;BME280;8055;51.930;8.840;2023-12-29T11:59:16;75539.16;;;-145.72;100.00
15914;BME280;8055;51.930;8.840;2023-12-29T12:01:44;75539.16;;;-145.72;100.00
15914;BME280;8055;51.930;8.840;2023-12-29T12:09:49;75553.63;;;-145.72;100.00
15914;BME280;8055;51.930;8.840;2023-12-29T12:12:41;75549.50;;;-145.72;100.00
15914;BME280;8055;51.930;8.840;2023-12-29T12:17:52;75553.63;;;-145.72;100.00
15914;BME280;8055;51.930;8.840;2023-12-29T12:20:18;75539.16;;;-145.72;100.00
15914;BME280;8055;51.930;8.840;2023-12-29T12:22:43;75539.16;;;-145.72;100.00
15914;BME280;8055;51.930;8.840;2023-12-29T12:25:11;75537.06;;;-145.72;100.00
15914;BME280;8055;51.930;8.840;2023-12-29T12:27:37;75539.16;;;-145.72;100.00
15914;BME280;8055;51.930;8.840;2023-12-29T12:30:04;75535.00;;;-145.72;100.00
15914;BME280;8055;51.930;8.840;2023-12-29T12:32:30;75524.66;;;-145.72;100.00
15914;BME280;8055;51.930;8.840;2023-12-29T12:34:56;75503.97;;;-145.72;100.00
15914;BME280;8055;51.930;8.840;2023-12-29T12:37:26;75516.38;;;-145.72;100.00
15914;BME280;8055;51.930;8.840;2023-12-29T12:39:52;75485.34;;;-145.72;100.00
15914;BME280;8055;51.930;8.840;2023-12-29T12:42:22;75497.75;;;-145.72;100.00
15914;BME280;8055;51.930;8.840;2023-12-29T12:44:54;75487.41;;;-145.72;100.00
15914;BME280;8055;51.930;8.840;2023-12-29T12:47:27;75483.28;;;-145.72;100.00
15914;BME280;8055;51.930;8.840;2023-12-29T12:49:59;75501.91;;;-145.72;100.00
15914;BME280;8055;51.930;8.840;2023-12-29T12:52:24;75499.84;;;-145.72;100.00
15914;BME280;8055;51.930;8.840;2023-12-29T12:54:53;75475.00;;;-145.72;100.00
15914;BME280;8055;51.930;8.840;2023-12-29T12:57:20;75470.88;;;-145.72;100.00